Ferdinand, Vermont
Current Conditions -  °F | °C
As of 3:35 AM on Friday 28 Nov 2014 (Local Time) from KCDA Reporting Station
Light Snow Light Snow  
Wind Chill: 22°   Ceiling: 3800
Heat Index: 22°   Visibility: 3mi
Dew Point: 19°   Wind: 0mph
Humidity: 88%   Direction: NA
Pressure: 29.98"   Gusts: NA
Location:  44.7348°N, 71.6296°W
Report Text: KCDA 280835Z AUTO 00000KT 3SM -SN SCT013 BKN038 OVC080 M05/M07 A2998 RMK AO2 T10531070
Loading
Personal Weather Stations






























Interactive Weather Map New forecast layout! Learn more

10-Day Weather Forecast

Advertisements
Track Severe Weather on mobile